sensor_id;sensor_type;location;lat;lon;timestamp;pressure;altitude;pressure_sealevel;temperature;humidity
61357;BME280;47227;46.752;23.576;2023-02-01T00:07:20;96107.70;;;-1.03;73.55
61357;BME280;47227;46.752;23.576;2023-02-01T00:10:28;96106.62;;;-1.04;73.63
61357;BME280;47227;46.752;23.576;2023-02-01T00:13:15;96103.44;;;-1.06;74.12
61357;BME280;47227;46.752;23.576;2023-02-01T00:16:27;96105.70;;;-1.08;74.22
61357;BME280;47227;46.752;23.576;2023-02-01T00:20:14;96100.79;;;-1.17;74.32
61357;BME280;47227;46.752;23.576;2023-02-01T00:22:41;96094.02;;;-1.22;74.36
61357;BME280;47227;46.752;23.576;2023-02-01T00:25:08;96092.06;;;-1.28;74.26
61357;BME280;47227;46.752;23.576;2023-02-01T00:27:34;96093.23;;;-1.35;74.15
61357;BME280;47227;46.752;23.576;2023-02-01T00:30:01;96087.36;;;-1.44;74.24
61357;BME280;47227;46.752;23.576;2023-02-01T00:32:28;96088.10;;;-1.53;74.11
61357;BME280;47227;46.752;23.576;2023-02-01T00:34:55;96089.64;;;-1.63;74.05
61357;BME280;47227;46.752;23.576;2023-02-01T00:37:21;96091.77;;;-1.73;74.05
61357;BME280;47227;46.752;23.576;2023-02-01T00:39:49;96089.02;;;-1.82;73.96
61357;BME280;47227;46.752;23.576;2023-02-01T00:42:16;96090.10;;;-1.90;73.90
61357;BME280;47227;46.752;23.576;2023-02-01T00:44:42;96084.77;;;-1.99;73.80
61357;BME280;47227;46.752;23.576;2023-02-01T00:47:09;96087.06;;;-2.07;73.89
61357;BME280;47227;46.752;23.576;2023-02-01T00:49:35;96085.04;;;-2.15;73.63
61357;BME280;47227;46.752;23.576;2023-02-01T00:52:02;96079.63;;;-2.24;73.66
61357;BME280;47227;46.752;23.576;2023-02-01T00:54:29;96073.15;;;-2.28;73.65
61357;BME280;47227;46.752;23.576;2023-02-01T00:56:55;96068.73;;;-2.32;73.57
61357;BME280;47227;46.752;23.576;2023-02-01T00:59:22;96064.10;;;-2.33;73.56
61357;BME280;47227;46.752;23.576;2023-02-01T01:01:48;96062.20;;;-2.33;73.40
61357;BME280;47227;46.752;23.576;2023-02-01T01:04:15;96057.64;;;-2.34;73.54
61357;BME280;47227;46.752;23.576;2023-02-01T01:06:41;96053.38;;;-2.34;73.28
61357;BME280;47227;46.752;23.576;2023-02-01T01:09:09;96049.27;;;-2.34;73.45
61357;BME280;47227;46.752;23.576;2023-02-01T01:11:37;96045.10;;;-2.35;73.31
61357;BME280;47227;46.752;23.576;2023-02-01T01:14:07;96045.14;;;-2.37;73.43
61357;BME280;47227;46.752;23.576;2023-02-01T01:16:35;96039.98;;;-2.38;73.07
61357;BME280;47227;46.752;23.576;2023-02-01T01:19:02;96039.02;;;-2.41;73.16
61357;BME280;47227;46.752;23.576;2023-02-01T01:21:29;96036.96;;;-2.40;73.05
61357;BME280;47227;46.752;23.576;2023-02-01T01:23:56;96032.00;;;-2.40;73.16
61357;BME280;47227;46.752;23.576;2023-02-01T01:26:26;96032.79;;;-2.41;73.09
61357;BME280;47227;46.752;23.576;2023-02-01T01:28:55;96029.95;;;-2.41;72.70
61357;BME280;47227;46.752;23.576;2023-02-01T01:31:22;96025.68;;;-2.40;72.90
61357;BME280;47227;46.752;23.576;2023-02-01T01:33:51;96024.27;;;-2.40;73.04
61357;BME280;47227;46.752;23.576;2023-02-01T01:36:19;96024.42;;;-2.40;73.04
61357;BME280;47227;46.752;23.576;2023-02-01T01:38:46;96024.55;;;-2.41;72.49
61357;BME280;47227;46.752;23.576;2023-02-01T01:41:16;96027.88;;;-2.44;72.59
61357;BME280;47227;46.752;23.576;2023-02-01T01:43:54;96028.55;;;-2.45;72.68
61357;BME280;47227;46.752;23.576;2023-02-01T01:46:25;96036.83;;;-2.45;72.97
61357;BME280;47227;46.752;23.576;2023-02-01T01:51:48;96041.36;;;-2.47;72.67
61357;BME280;47227;46.752;23.576;2023-02-01T01:54:22;96042.27;;;-2.50;72.65
61357;BME280;47227;46.752;23.576;2023-02-01T01:56:53;96043.05;;;-2.50;73.79
61357;BME280;47227;46.752;23.576;2023-02-01T01:59:26;96042.29;;;-2.54;76.49
61357;BME280;47227;46.752;23.576;2023-02-01T02:01:54;96045.70;;;-2.57;76.75
61357;BME280;47227;46.752;23.576;2023-02-01T02:04:22;96049.27;;;-2.59;76.80
61357;BME280;47227;46.752;23.576;2023-02-01T02:06:59;96049.92;;;-2.60;76.88
61357;BME280;47227;46.752;23.576;2023-02-01T02:09:27;96050.89;;;-2.59;76.61
61357;BME280;47227;46.752;23.576;2023-02-01T02:11:54;96056.67;;;-2.61;77.50
61357;BME280;47227;46.752;23.576;2023-02-01T02:14:22;96052.54;;;-2.58;77.41
61357;BME280;47227;46.752;23.576;2023-02-01T02:17:02;96056.38;;;-2.56;77.54
61357;BME280;47227;46.752;23.576;2023-02-01T02:19:47;96059.39;;;-2.49;77.43
61357;BME280;47227;46.752;23.576;2023-02-01T02:22:35;96056.64;;;-2.42;77.13
61357;BME280;47227;46.752;23.576;2023-02-01T02:25:22;96055.67;;;-2.33;76.89
61357;BME280;47227;46.752;23.576;2023-02-01T02:28:17;96054.23;;;-2.23;76.50
61357;BME280;47227;46.752;23.576;2023-02-01T02:31:06;96050.23;;;-2.10;76.45
61357;BME280;47227;46.752;23.576;2023-02-01T02:33:47;96044.29;;;-1.99;76.43
61357;BME280;47227;46.752;23.576;2023-02-01T02:36:39;96036.00;;;-1.88;76.38
61357;BME280;47227;46.752;23.576;2023-02-01T02:39:23;96032.16;;;-1.75;76.12
61357;BME280;47227;46.752;23.576;2023-02-01T02:42:07;96028.20;;;-1.67;75.58
61357;BME280;47227;46.752;23.576;2023-02-01T02:45:09;96026.15;;;-1.60;75.74
61357;BME280;47227;46.752;23.576;2023-02-01T02:48:07;96022.47;;;-1.52;75.52
61357;BME280;47227;46.752;23.576;2023-02-01T02:50:45;96018.46;;;-1.44;75.60
61357;BME280;47227;46.752;23.576;2023-02-01T02:53:33;96016.30;;;-1.39;75.14
61357;BME280;47227;46.752;23.576;2023-02-01T02:56:19;96006.59;;;-1.35;74.99
61357;BME280;47227;46.752;23.576;2023-02-01T02:59:09;96006.02;;;-1.33;74.81
61357;BME280;47227;46.752;23.576;2023-02-01T03:01:48;96011.45;;;-1.33;74.41
61357;BME280;47227;46.752;23.576;2023-02-01T03:04:27;96013.70;;;-1.33;74.25
61357;BME280;47227;46.752;23.576;2023-02-01T03:06:54;96015.81;;;-1.35;74.03
61357;BME280;47227;46.752;23.576;2023-02-01T03:09:26;96015.27;;;-1.37;73.34
61357;BME280;47227;46.752;23.576;2023-02-01T03:12:04;96010.04;;;-1.41;73.47
61357;BME280;47227;46.752;23.576;2023-02-01T03:14:52;96010.15;;;-1.45;73.40
61357;BME280;47227;46.752;23.576;2023-02-01T03:17:27;96003.55;;;-1.47;73.35
61357;BME280;47227;46.752;23.576;2023-02-01T03:20:01;95996.44;;;-1.49;73.40
61357;BME280;47227;46.752;23.576;2023-02-01T03:22:30;95996.27;;;-1.49;73.24
61357;BME280;47227;46.752;23.576;2023-02-01T03:25:03;95987.48;;;-1.50;73.27
61357;BME280;47227;46.752;23.576;2023-02-01T03:27:37;95979.27;;;-1.50;73.20
61357;BME280;47227;46.752;23.576;2023-02-01T03:30:20;95988.05;;;-1.51;73.10
61357;BME280;47227;46.752;23.576;2023-02-01T03:32:51;95974.14;;;-1.51;72.84
61357;BME280;47227;46.752;23.576;2023-02-01T03:35:33;95964.41;;;-1.49;72.96
61357;BME280;47227;46.752;23.576;2023-02-01T03:38:21;95964.54;;;-1.52;72.46
61357;BME280;47227;46.752;23.576;2023-02-01T03:40:54;95968.73;;;-1.55;72.60
61357;BME280;47227;46.752;23.576;2023-02-01T03:43:23;95971.48;;;-1.58;72.77
61357;BME280;47227;46.752;23.576;2023-02-01T03:45:58;95966.98;;;-1.59;72.76
61357;BME280;47227;46.752;23.576;2023-02-01T03:48:28;95964.45;;;-1.60;72.63
61357;BME280;47227;46.752;23.576;2023-02-01T03:50:58;95961.42;;;-1.61;72.53
61357;BME280;47227;46.752;23.576;2023-02-01T03:53:28;95961.06;;;-1.61;72.73
61357;BME280;47227;46.752;23.576;2023-02-01T03:55:55;95958.90;;;-1.60;72.48
61357;BME280;47227;46.752;23.576;2023-02-01T03:58:23;95960.41;;;-1.60;72.34
61357;BME280;47227;46.752;23.576;2023-02-01T04:00:53;95955.76;;;-1.62;72.20
61357;BME280;47227;46.752;23.576;2023-02-01T04:03:21;95961.95;;;-1.66;72.47
61357;BME280;47227;46.752;23.576;2023-02-01T04:05:49;95960.76;;;-1.73;72.34
61357;BME280;47227;46.752;23.576;2023-02-01T04:08:16;95957.35;;;-1.79;72.41
61357;BME280;47227;46.752;23.576;2023-02-01T04:10:43;95955.60;;;-1.84;72.45
61357;BME280;47227;46.752;23.576;2023-02-01T04:13:10;95960.15;;;-1.88;72.55
61357;BME280;47227;46.752;23.576;2023-02-01T04:15:37;95959.80;;;-1.91;72.79
61357;BME280;47227;46.752;23.576;2023-02-01T04:18:03;95956.66;;;-1.92;72.91
61357;BME280;47227;46.752;23.576;2023-02-01T04:20:30;95954.91;;;-1.92;72.84
61357;BME280;47227;46.752;23.576;2023-02-01T04:22:57;95958.11;;;-1.90;72.92
61357;BME280;47227;46.752;23.576;2023-02-01T04:25:24;95960.04;;;-1.87;72.88
61357;BME280;47227;46.752;23.576;2023-02-01T04:27:51;95963.92;;;-1.84;72.90
61357;BME280;47227;46.752;23.576;2023-02-01T04:30:17;95967.17;;;-1.81;72.98
61357;BME280;47227;46.752;23.576;2023-02-01T04:32:44;95972.42;;;-1.76;72.92
61357;BME280;47227;46.752;23.576;2023-02-01T04:35:11;95977.52;;;-1.74;73.44
61357;BME280;47227;46.752;23.576;2023-02-01T04:37:38;95975.86;;;-1.76;73.80
61357;BME280;47227;46.752;23.576;2023-02-01T04:40:05;95969.20;;;-1.78;74.85
61357;BME280;47227;46.752;23.576;2023-02-01T04:42:31;95966.63;;;-1.81;75.53
61357;BME280;47227;46.752;23.576;2023-02-01T04:44:58;95966.11;;;-1.80;74.80
61357;BME280;47227;46.752;23.576;2023-02-01T04:47:25;95967.75;;;-1.79;74.66
61357;BME280;47227;46.752;23.576;2023-02-01T04:49:52;95972.61;;;-1.76;74.83
61357;BME280;47227;46.752;23.576;2023-02-01T04:52:18;95974.41;;;-1.75;74.66
61357;BME280;47227;46.752;23.576;2023-02-01T04:54:45;95975.69;;;-1.74;74.93
61357;BME280;47227;46.752;23.576;2023-02-01T04:57:12;95983.95;;;-1.75;75.20
61357;BME280;47227;46.752;23.576;2023-02-01T04:59:39;95983.47;;;-1.75;75.75
61357;BME280;47227;46.752;23.576;2023-02-01T05:02:06;95981.47;;;-1.71;75.40
61357;BME280;47227;46.752;23.576;2023-02-01T05:04:32;95978.06;;;-1.65;75.56
61357;BME280;47227;46.752;23.576;2023-02-01T05:06:59;95977.55;;;-1.57;75.63
61357;BME280;47227;46.752;23.576;2023-02-01T05:09:25;95978.14;;;-1.47;75.46
61357;BME280;47227;46.752;23.576;2023-02-01T05:11:52;95977.36;;;-1.37;75.47
61357;BME280;47227;46.752;23.576;2023-02-01T05:14:37;95971.50;;;-1.26;75.59
61357;BME280;47227;46.752;23.576;2023-02-01T05:17:04;95975.17;;;-1.17;75.42
61357;BME280;47227;46.752;23.576;2023-02-01T05:19:30;95980.39;;;-1.03;75.65
61357;BME280;47227;46.752;23.576;2023-02-01T05:21:57;95976.93;;;-0.94;74.68
61357;BME280;47227;46.752;23.576;2023-02-01T05:24:24;95980.86;;;-0.88;74.61
61357;BME280;47227;46.752;23.576;2023-02-01T05:26:50;95979.92;;;-0.80;74.71
61357;BME280;47227;46.752;23.576;2023-02-01T05:29:18;95978.48;;;-0.74;74.77
61357;BME280;47227;46.752;23.576;2023-02-01T05:31:46;95977.60;;;-0.71;74.88
61357;BME280;47227;46.752;23.576;2023-02-01T05:34:14;95979.65;;;-0.72;74.93
61357;BME280;47227;46.752;23.576;2023-02-01T05:36:41;95982.39;;;-0.87;75.25
61357;BME280;47227;46.752;23.576;2023-02-01T05:39:08;95984.66;;;-0.90;74.95
61357;BME280;47227;46.752;23.576;2023-02-01T05:41:34;95983.84;;;-0.92;75.00
61357;BME280;47227;46.752;23.576;2023-02-01T05:44:01;95980.02;;;-0.97;75.27
61357;BME280;47227;46.752;23.576;2023-02-01T05:46:28;95977.03;;;-1.03;76.22
61357;BME280;47227;46.752;23.576;2023-02-01T05:48:55;95972.58;;;-1.09;77.31
61357;BME280;47227;46.752;23.576;2023-02-01T05:51:28;95974.94;;;-1.14;76.69
61357;BME280;47227;46.752;23.576;2023-02-01T05:53:55;95974.34;;;-1.14;76.39
61357;BME280;47227;46.752;23.576;2023-02-01T05:56:26;95975.73;;;-1.14;76.92
61357;BME280;47227;46.752;23.576;2023-02-01T05:58:53;95976.51;;;-1.18;76.94
61357;BME280;47227;46.752;23.576;2023-02-01T06:01:20;95981.37;;;-1.19;76.96
61357;BME280;47227;46.752;23.576;2023-02-01T06:03:52;95982.17;;;-1.18;76.96
61357;BME280;47227;46.752;23.576;2023-02-01T06:06:19;95974.93;;;-1.18;76.92
61357;BME280;47227;46.752;23.576;2023-02-01T06:08:46;95973.55;;;-1.21;77.05
61357;BME280;47227;46.752;23.576;2023-02-01T06:11:12;95970.48;;;-1.24;77.21
61357;BME280;47227;46.752;23.576;2023-02-01T07:42:13;96026.79;;;-1.08;79.78
61357;BME280;47227;46.752;23.576;2023-02-01T07:44:43;96026.10;;;-1.05;79.88
61357;BME280;47227;46.752;23.576;2023-02-01T07:47:10;96031.15;;;-0.97;80.11
61357;BME280;47227;46.752;23.576;2023-02-01T07:49:38;96028.60;;;-0.95;79.66
61357;BME280;47227;46.752;23.576;2023-02-01T07:52:10;96027.64;;;-0.93;79.64
61357;BME280;47227;46.752;23.576;2023-02-01T07:54:42;96028.68;;;-0.92;79.64
61357;BME280;47227;46.752;23.576;2023-02-01T08:01:02;96031.48;;;-0.90;80.16
61357;BME280;47227;46.752;23.576;2023-02-01T08:03:53;96034.45;;;-0.85;80.11
61357;BME280;47227;46.752;23.576;2023-02-01T08:06:28;96036.89;;;-0.80;80.25
61357;BME280;47227;46.752;23.576;2023-02-01T08:09:11;96033.30;;;-0.74;80.23
61357;BME280;47227;46.752;23.576;2023-02-01T08:11:46;96035.86;;;-0.69;80.30
61357;BME280;47227;46.752;23.576;2023-02-01T08:14:21;96036.97;;;-0.60;80.57
61357;BME280;47227;46.752;23.576;2023-02-01T08:16:50;96033.98;;;-0.51;80.51
61357;BME280;47227;46.752;23.576;2023-02-01T08:19:20;96033.09;;;-0.41;80.56
61357;BME280;47227;46.752;23.576;2023-02-01T08:21:51;96036.48;;;-0.30;80.68
61357;BME280;47227;46.752;23.576;2023-02-01T08:24:19;96038.91;;;-0.18;80.88
61357;BME280;47227;46.752;23.576;2023-02-01T08:26:45;96037.52;;;-0.05;80.82
61357;BME280;47227;46.752;23.576;2023-02-01T08:29:12;96033.51;;;0.10;80.93
61357;BME280;47227;46.752;23.576;2023-02-01T08:31:43;96035.41;;;0.25;80.92
61357;BME280;47227;46.752;23.576;2023-02-01T08:34:13;96035.62;;;0.39;80.91
61357;BME280;47227;46.752;23.576;2023-02-01T08:36:45;96041.54;;;0.51;80.72
61357;BME280;47227;46.752;23.576;2023-02-01T08:39:13;96047.05;;;0.59;80.87
61357;BME280;47227;46.752;23.576;2023-02-01T08:41:47;96047.95;;;0.65;80.52
61357;BME280;47227;46.752;23.576;2023-02-01T08:44:37;96053.42;;;0.70;80.54
61357;BME280;47227;46.752;23.576;2023-02-01T08:47:06;96059.30;;;0.76;80.64
61357;BME280;47227;46.752;23.576;2023-02-01T08:49:37;96063.75;;;0.83;80.63
61357;BME280;47227;46.752;23.576;2023-02-01T08:52:14;96065.41;;;0.89;80.36
61357;BME280;47227;46.752;23.576;2023-02-01T08:54:48;96068.95;;;0.92;80.26
61357;BME280;47227;46.752;23.576;2023-02-01T08:57:20;96067.85;;;0.94;80.35
61357;BME280;47227;46.752;23.576;2023-02-01T08:59:50;96067.96;;;0.93;80.64
61357;BME280;47227;46.752;23.576;2023-02-01T09:03:10;96070.63;;;0.95;80.34
61357;BME280;47227;46.752;23.576;2023-02-01T09:06:11;96068.25;;;0.95;80.58
61357;BME280;47227;46.752;23.576;2023-02-01T09:08:41;96064.72;;;0.97;80.71
61357;BME280;47227;46.752;23.576;2023-02-01T09:11:39;96061.77;;;1.04;80.68
61357;BME280;47227;46.752;23.576;2023-02-01T09:14:07;96057.35;;;1.09;80.82
61357;BME280;47227;46.752;23.576;2023-02-01T09:16:38;96060.37;;;1.18;80.99
61357;BME280;47227;46.752;23.576;2023-02-01T09:19:10;96060.79;;;1.26;81.10
61357;BME280;47227;46.752;23.576;2023-02-01T09:21:53;96058.14;;;1.30;80.79
61357;BME280;47227;46.752;23.576;2023-02-01T09:24:36;96060.89;;;1.35;80.68
61357;BME280;47227;46.752;23.576;2023-02-01T09:27:17;96058.48;;;1.37;80.80
61357;BME280;47227;46.752;23.576;2023-02-01T09:29:50;96059.64;;;1.39;81.01
61357;BME280;47227;46.752;23.576;2023-02-01T09:32:44;96055.52;;;1.41;80.76
61357;BME280;47227;46.752;23.576;2023-02-01T09:35:18;96056.16;;;1.42;80.60
61357;BME280;47227;46.752;23.576;2023-02-01T09:37:51;96054.95;;;1.41;80.99
61357;BME280;47227;46.752;23.576;2023-02-01T09:40:54;96049.23;;;1.44;80.96
61357;BME280;47227;46.752;23.576;2023-02-01T09:43:41;96048.92;;;1.46;81.09
61357;BME280;47227;46.752;23.576;2023-02-01T09:46:27;96050.14;;;1.54;81.34
61357;BME280;47227;46.752;23.576;2023-02-01T10:14:59;96063.39;;;2.18;79.54
61357;BME280;47227;46.752;23.576;2023-02-01T10:19:23;96066.16;;;2.04;80.05
61357;BME280;47227;46.752;23.576;2023-02-01T10:33:49;96069.66;;;1.97;80.67
61357;BME280;47227;46.752;23.576;2023-02-01T10:37:36;96066.90;;;2.00;81.41
61357;BME280;47227;46.752;23.576;2023-02-01T11:07:45;96048.45;;;2.16;79.75
61357;BME280;47227;46.752;23.576;2023-02-01T11:11:56;96050.73;;;2.25;79.58
61357;BME280;47227;46.752;23.576;2023-02-01T11:33:36;96042.20;;;2.53;75.85
61357;BME280;47227;46.752;23.576;2023-02-01T11:55:29;96038.51;;;2.72;73.68
61357;BME280;47227;46.752;23.576;2023-02-01T11:58:36;96033.77;;;2.72;71.78
61357;BME280;47227;46.752;23.576;2023-02-01T12:06:23;96030.45;;;2.74;71.85
61357;BME280;47227;46.752;23.576;2023-02-01T12:11:23;96023.14;;;2.78;71.69
61357;BME280;47227;46.752;23.576;2023-02-01T12:18:48;96011.16;;;2.79;72.02
61357;BME280;47227;46.752;23.576;2023-02-01T12:26:39;96013.90;;;2.99;72.38
61357;BME280;47227;46.752;23.576;2023-02-01T12:41:33;96004.11;;;2.98;73.53
61357;BME280;47227;46.752;23.576;2023-02-01T12:46:02;95998.34;;;2.84;73.39
61357;BME280;47227;46.752;23.576;2023-02-01T12:49:38;95999.75;;;2.80;74.04
61357;BME280;47227;46.752;23.576;2023-02-01T12:54:11;95995.43;;;3.05;74.47
61357;BME280;47227;46.752;23.576;2023-02-01T12:58:11;95993.19;;;3.08;73.85
61357;BME280;47227;46.752;23.576;2023-02-01T13:13:48;95986.19;;;3.07;73.41
61357;BME280;47227;46.752;23.576;2023-02-01T13:35:43;95984.52;;;3.58;73.15
61357;BME280;47227;46.752;23.576;2023-02-01T13:38:43;95977.16;;;3.84;73.11
61357;BME280;47227;46.752;23.576;2023-02-01T13:41:32;95973.46;;;4.32;72.40
61357;BME280;47227;46.752;23.576;2023-02-01T13:44:19;95962.81;;;4.65;70.76
61357;BME280;47227;46.752;23.576;2023-02-01T13:47:01;95952.46;;;4.96;69.33
61357;BME280;47227;46.752;23.576;2023-02-01T13:49:41;95949.73;;;5.18;68.93
61357;BME280;47227;46.752;23.576;2023-02-01T13:52:51;95943.85;;;5.33;67.14
61357;BME280;47227;46.752;23.576;2023-02-01T13:56:44;95942.75;;;5.25;66.30
61357;BME280;47227;46.752;23.576;2023-02-01T14:00:44;95941.17;;;5.06;66.85
61357;BME280;47227;46.752;23.576;2023-02-01T14:03:42;95943.63;;;4.89;66.83
61357;BME280;47227;46.752;23.576;2023-02-01T14:06:35;95938.88;;;4.73;67.40
61357;BME280;47227;46.752;23.576;2023-02-01T14:09:15;95940.59;;;4.54;67.17
61357;BME280;47227;46.752;23.576;2023-02-01T14:15:22;95936.34;;;4.18;68.45
61357;BME280;47227;46.752;23.576;2023-02-01T14:17:52;95937.83;;;4.01;68.61
61357;BME280;47227;46.752;23.576;2023-02-01T14:20:41;95933.68;;;3.90;68.95
61357;BME280;47227;46.752;23.576;2023-02-01T14:23:17;95928.41;;;3.76;69.08
61357;BME280;47227;46.752;23.576;2023-02-01T14:26:07;95929.86;;;3.65;69.41
61357;BME280;47227;46.752;23.576;2023-02-01T14:28:44;95932.74;;;3.53;69.63
61357;BME280;47227;46.752;23.576;2023-02-01T14:31:40;95932.24;;;3.44;69.88
61357;BME280;47227;46.752;23.576;2023-02-01T14:34:26;95932.75;;;3.28;70.35
61357;BME280;47227;46.752;23.576;2023-02-01T14:37:22;95936.05;;;3.16;71.26
61357;BME280;47227;46.752;23.576;2023-02-01T14:39:58;95934.39;;;3.09;71.24
61357;BME280;47227;46.752;23.576;2023-02-01T14:42:45;95933.34;;;3.03;71.43
61357;BME280;47227;46.752;23.576;2023-02-01T14:48:43;95939.40;;;2.81;73.63
61357;BME280;47227;46.752;23.576;2023-02-01T14:51:14;95935.91;;;2.64;74.77
61357;BME280;47227;46.752;23.576;2023-02-01T14:53:44;95936.30;;;2.55;75.35
61357;BME280;47227;46.752;23.576;2023-02-01T14:56:16;95941.94;;;2.46;75.83
61357;BME280;47227;46.752;23.576;2023-02-01T14:58:56;95943.08;;;2.40;75.83
61357;BME280;47227;46.752;23.576;2023-02-01T15:01:31;95942.84;;;2.38;75.07
61357;BME280;47227;46.752;23.576;2023-02-01T15:04:13;95946.84;;;2.35;74.91
61357;BME280;47227;46.752;23.576;2023-02-01T15:06:52;95943.42;;;2.31;75.53
61357;BME280;47227;46.752;23.576;2023-02-01T15:10:25;95945.02;;;2.24;75.33
61357;BME280;47227;46.752;23.576;2023-02-01T15:12:54;95944.88;;;2.23;77.03
61357;BME280;47227;46.752;23.576;2023-02-01T15:15:28;95942.79;;;2.22;76.85
61357;BME280;47227;46.752;23.576;2023-02-01T15:18:04;95941.25;;;2.22;76.11
61357;BME280;47227;46.752;23.576;2023-02-01T15:20:38;95939.27;;;2.24;75.91
61357;BME280;47227;46.752;23.576;2023-02-01T15:23:29;95940.48;;;2.23;75.81
61357;BME280;47227;46.752;23.576;2023-02-01T15:25:58;95932.80;;;2.23;75.86
61357;BME280;47227;46.752;23.576;2023-02-01T15:28:30;95934.95;;;2.25;76.07
61357;BME280;47227;46.752;23.576;2023-02-01T15:31:02;95935.86;;;2.28;76.11
61357;BME280;47227;46.752;23.576;2023-02-01T15:33:31;95933.42;;;2.31;75.98
61357;BME280;47227;46.752;23.576;2023-02-01T15:36:17;95930.08;;;2.30;75.97
61357;BME280;47227;46.752;23.576;2023-02-01T15:38:46;95932.52;;;2.28;75.97
61357;BME280;47227;46.752;23.576;2023-02-01T15:41:20;95933.64;;;2.23;75.76
61357;BME280;47227;46.752;23.576;2023-02-01T15:44:05;95930.70;;;2.17;75.51
61357;BME280;47227;46.752;23.576;2023-02-01T15:46:40;95930.05;;;2.08;75.51
61357;BME280;47227;46.752;23.576;2023-02-01T15:49:23;95928.19;;;2.03;75.59
61357;BME280;47227;46.752;23.576;2023-02-01T15:51:54;95928.64;;;1.97;75.43
61357;BME280;47227;46.752;23.576;2023-02-01T15:54:28;95932.77;;;1.91;75.50
61357;BME280;47227;46.752;23.576;2023-02-01T15:57:01;95936.69;;;1.87;75.58
61357;BME280;47227;46.752;23.576;2023-02-01T15:59:37;95939.20;;;1.83;75.63
61357;BME280;47227;46.752;23.576;2023-02-01T16:02:33;95939.71;;;1.79;75.62
61357;BME280;47227;46.752;23.576;2023-02-01T16:05:03;95946.31;;;1.76;76.27
61357;BME280;47227;46.752;23.576;2023-02-01T16:07:33;95951.64;;;1.73;75.91
61357;BME280;47227;46.752;23.576;2023-02-01T16:10:23;95951.05;;;1.71;76.74
61357;BME280;47227;46.752;23.576;2023-02-01T16:12:52;95949.02;;;1.70;76.33
61357;BME280;47227;46.752;23.576;2023-02-01T16:15:26;95947.27;;;1.69;76.24
61357;BME280;47227;46.752;23.576;2023-02-01T16:17:57;95944.01;;;1.66;76.85
61357;BME280;47227;46.752;23.576;2023-02-01T16:20:25;95941.20;;;1.61;76.42
61357;BME280;47227;46.752;23.576;2023-02-01T16:22:53;95945.73;;;1.62;76.39
61357;BME280;47227;46.752;23.576;2023-02-01T16:25:21;95942.71;;;1.60;76.40
61357;BME280;47227;46.752;23.576;2023-02-01T16:27:50;95938.36;;;1.58;76.43
61357;BME280;47227;46.752;23.576;2023-02-01T16:30:18;95931.73;;;1.55;76.78
61357;BME280;47227;46.752;23.576;2023-02-01T16:32:54;95923.14;;;1.50;76.59
61357;BME280;47227;46.752;23.576;2023-02-01T16:35:25;95924.52;;;1.46;76.53
61357;BME280;47227;46.752;23.576;2023-02-01T16:37:54;95932.42;;;1.42;76.34
61357;BME280;47227;46.752;23.576;2023-02-01T16:40:28;95932.90;;;1.39;76.71
61357;BME280;47227;46.752;23.576;2023-02-01T16:42:56;95937.15;;;1.35;76.79
61357;BME280;47227;46.752;23.576;2023-02-01T16:45:24;95940.17;;;1.33;76.68
61357;BME280;47227;46.752;23.576;2023-02-01T16:47:54;95937.43;;;1.32;76.60
61357;BME280;47227;46.752;23.576;2023-02-01T16:50:25;95934.53;;;1.32;76.52
61357;BME280;47227;46.752;23.576;2023-02-01T16:52:53;95939.21;;;1.33;76.66
61357;BME280;47227;46.752;23.576;2023-02-01T16:55:21;95930.76;;;1.35;76.72
61357;BME280;47227;46.752;23.576;2023-02-01T16:57:51;95924.91;;;1.39;76.95
61357;BME280;47227;46.752;23.576;2023-02-01T17:00:19;95931.48;;;1.43;76.68
61357;BME280;47227;46.752;23.576;2023-02-01T17:02:52;95934.02;;;1.50;76.98
61357;BME280;47227;46.752;23.576;2023-02-01T17:05:21;95926.86;;;1.57;77.10
61357;BME280;47227;46.752;23.576;2023-02-01T17:11:17;95926.83;;;1.68;76.61
61357;BME280;47227;46.752;23.576;2023-02-01T17:14:26;95921.34;;;1.76;76.83
61357;BME280;47227;46.752;23.576;2023-02-01T17:17:38;95922.72;;;1.81;76.67
61357;BME280;47227;46.752;23.576;2023-02-01T17:21:39;95924.80;;;1.87;76.42
61357;BME280;47227;46.752;23.576;2023-02-01T17:24:55;95925.55;;;1.89;76.26
61357;BME280;47227;46.752;23.576;2023-02-01T17:31:20;95924.23;;;1.80;75.91
61357;BME280;47227;46.752;23.576;2023-02-01T17:33:51;95930.05;;;1.74;75.61
61357;BME280;47227;46.752;23.576;2023-02-01T17:36:19;95928.86;;;1.66;75.80
61357;BME280;47227;46.752;23.576;2023-02-01T17:38:46;95929.68;;;1.57;76.28
61357;BME280;47227;46.752;23.576;2023-02-01T17:41:32;95934.58;;;1.48;76.32
61357;BME280;47227;46.752;23.576;2023-02-01T17:44:13;95930.92;;;1.43;76.36
61357;BME280;47227;46.752;23.576;2023-02-01T17:47:15;95929.23;;;1.32;77.22
61357;BME280;47227;46.752;23.576;2023-02-01T17:49:48;95929.11;;;1.31;76.64
61357;BME280;47227;46.752;23.576;2023-02-01T17:52:44;95923.75;;;1.28;77.08
61357;BME280;47227;46.752;23.576;2023-02-01T17:55:40;95925.52;;;1.18;77.51
61357;BME280;47227;46.752;23.576;2023-02-01T17:58:13;95930.88;;;1.09;77.47
61357;BME280;47227;46.752;23.576;2023-02-01T18:01:44;95924.61;;;0.94;79.61
61357;BME280;47227;46.752;23.576;2023-02-01T18:05:55;95922.53;;;0.79;81.00
61357;BME280;47227;46.752;23.576;2023-02-01T18:10:09;95916.70;;;0.66;82.09
61357;BME280;47227;46.752;23.576;2023-02-01T18:22:33;95919.21;;;0.41;84.20
61357;BME280;47227;46.752;23.576;2023-02-01T18:25:49;95924.39;;;0.44;83.44
61357;BME280;47227;46.752;23.576;2023-02-01T18:29:25;95928.39;;;0.44;84.43
61357;BME280;47227;46.752;23.576;2023-02-01T18:32:13;95927.52;;;0.42;85.44
61357;BME280;47227;46.752;23.576;2023-02-01T18:36:12;95920.58;;;0.37;84.64
61357;BME280;47227;46.752;23.576;2023-02-01T18:39:21;95919.02;;;0.32;84.33
61357;BME280;47227;46.752;23.576;2023-02-01T18:42:17;95914.51;;;0.28;83.93
61357;BME280;47227;46.752;23.576;2023-02-01T18:45:13;95903.34;;;0.24;85.22
61357;BME280;47227;46.752;23.576;2023-02-01T18:48:19;95898.23;;;0.18;85.43
61357;BME280;47227;46.752;23.576;2023-02-01T18:51:22;95896.73;;;0.15;85.11
61357;BME280;47227;46.752;23.576;2023-02-01T18:55:16;95897.98;;;0.13;85.31